Time,TemperatureF,DewpointF,PressureIn,WindDirection,WindDirectionDegrees,WindSpeedMPH,WindSpeedGustMPH,Humidity,HourlyPrecipIn,Conditions,Clouds,dailyrainin,SoftwareType,DateUTC
2013-01-08 00:00:00,25.5,18.4,28.88,NW,326,0.0,0.0,74,0.00,,---,0.00,VWS V14.01,2013-01-08 06:00:00,
2013-01-08 00:10:00,25.5,18.7,28.88,NW,326,0.0,0.0,75,0.00,,---,0.00,VWS V14.01,2013-01-08 06:10:00,
2013-01-08 00:20:00,25.5,18.7,28.88,NW,326,0.0,0.0,75,0.00,,---,0.00,VWS V14.01,2013-01-08 06:20:00,
2013-01-08 00:25:00,25.5,18.7,28.88,NW,326,0.0,0.0,75,0.00,,---,0.00,VWS V14.01,2013-01-08 06:25:00,
2013-01-08 00:35:00,25.3,18.5,28.88,NW,326,0.0,0.0,75,0.00,,---,0.00,VWS V14.01,2013-01-08 06:35:00,
2013-01-08 00:40:00,25.3,18.9,28.88,NW,326,0.0,0.0,76,0.00,,---,0.00,VWS V14.01,2013-01-08 06:40:00,
2013-01-08 00:45:00,25.3,18.9,28.88,NW,326,0.0,0.0,76,0.00,,---,0.00,VWS V14.01,2013-01-08 06:45:00,
2013-01-08 00:50:00,25.2,18.7,28.88,NW,326,0.0,0.0,76,0.00,,---,0.00,VWS V14.01,2013-01-08 06:50:00,
2013-01-08 00:55:00,25.2,18.7,28.88,NW,326,0.0,0.0,76,0.00,,---,0.00,VWS V14.01,2013-01-08 06:55:00,
2013-01-08 01:05:00,25.0,18.5,28.88,NW,326,0.0,0.0,76,0.00,,---,0.00,VWS V14.01,2013-01-08 07:05:00,
2013-01-08 01:10:00,24.8,18.3,28.88,NW,326,0.0,0.0,76,0.00,,---,0.00,VWS V14.01,2013-01-08 07:10:00,
2013-01-08 01:20:00,24.6,18.1,28.88,NW,326,0.0,0.0,76,0.00,,---,0.00,VWS V14.01,2013-01-08 07:20:00,
2013-01-08 01:25:00,24.6,18.5,28.88,NW,326,0.0,0.0,77,0.00,,---,0.00,VWS V14.01,2013-01-08 07:25:00,
2013-01-08 01:30:00,24.4,18.3,28.88,NW,326,0.0,0.0,77,0.00,,---,0.00,VWS V14.01,2013-01-08 07:30:00,
2013-01-08 01:35:00,24.4,18.3,28.88,NW,326,0.0,0.0,77,0.00,,---,0.00,VWS V14.01,2013-01-08 07:35:00,
2013-01-08 01:45:00,24.4,18.3,28.88,NW,326,0.0,0.0,77,0.00,,---,0.00,VWS V14.01,2013-01-08 07:45:00,
2013-01-08 01:55:00,24.3,18.1,28.88,NW,326,0.0,0.0,77,0.00,,---,0.00,VWS V14.01,2013-01-08 07:55:00,
2013-01-08 02:05:00,24.1,17.9,28.88,NW,326,0.0,0.0,77,0.00,,---,0.00,VWS V14.01,2013-01-08 08:05:00,
2013-01-08 02:15:00,23.9,17.8,28.88,NW,326,0.0,0.0,77,0.00,,---,0.00,VWS V14.01,2013-01-08 08:15:00,
2013-01-08 02:20:00,23.9,17.8,28.88,NW,326,0.0,0.0,77,0.00,,---,0.00,VWS V14.01,2013-01-08 08:20:00,
2013-01-08 02:30:00,23.7,17.6,28.88,NW,326,0.0,0.0,77,0.00,,---,0.00,VWS V14.01,2013-01-08 08:30:00,
2013-01-08 02:40:00,23.5,17.1,28.88,NW,326,0.0,0.0,76,0.00,,---,0.00,VWS V14.01,2013-01-08 08:40:00,
2013-01-08 02:50:00,22.8,16.4,28.88,NW,326,0.0,0.0,76,0.00,,---,0.00,VWS V14.01,2013-01-08 08:50:00,
2013-01-08 02:55:00,22.6,16.2,28.88,NW,326,0.0,0.0,76,0.00,,---,0.00,VWS V14.01,2013-01-08 08:55:00,
2013-01-08 03:00:00,22.1,15.7,28.88,NW,326,0.0,0.0,76,0.00,,---,0.00,VWS V14.01,2013-01-08 09:00:00,
2013-01-08 03:05:00,21.9,15.5,28.88,NW,326,0.0,0.0,76,0.00,,---,0.00,VWS V14.01,2013-01-08 09:05:00,
2013-01-08 03:10:00,21.6,14.9,28.88,NW,326,0.0,0.0,75,0.00,,---,0.00,VWS V14.01,2013-01-08 09:10:00,
2013-01-08 03:15:00,21.2,14.5,28.88,NW,326,0.0,0.0,75,0.00,,---,0.00,VWS V14.01,2013-01-08 09:15:00,
2013-01-08 03:25:00,21.2,14.5,28.88,NW,326,0.0,0.0,75,0.00,,---,0.00,VWS V14.01,2013-01-08 09:25:00,
2013-01-08 03:30:00,21.2,14.5,28.88,NW,326,0.0,0.0,75,0.00,,---,0.00,VWS V14.01,2013-01-08 09:30:00,
2013-01-08 03:40:00,20.8,13.9,28.88,NW,326,0.0,0.0,74,0.00,,---,0.00,VWS V14.01,2013-01-08 09:40:00,
2013-01-08 03:45:00,20.5,13.5,28.88,NW,326,0.0,0.0,74,0.00,,---,0.00,VWS V14.01,2013-01-08 09:45:00,
2013-01-08 03:55:00,19.8,12.5,28.88,NW,326,0.0,0.0,73,0.00,,---,0.00,VWS V14.01,2013-01-08 09:55:00,
2013-01-08 04:05:00,18.9,11.6,28.85,NW,326,0.0,0.0,73,0.00,,---,0.00,VWS V14.01,2013-01-08 10:05:00,
2013-01-08 04:15:00,18.1,10.6,28.85,NW,326,0.0,0.0,72,0.00,,---,0.00,VWS V14.01,2013-01-08 10:15:00,
2013-01-08 04:25:00,17.8,10.3,28.85,NW,326,0.0,0.0,72,0.00,,---,0.00,VWS V14.01,2013-01-08 10:25:00,
2013-01-08 04:35:00,17.8,10.3,28.85,NW,326,0.0,0.0,72,0.00,,---,0.00,VWS V14.01,2013-01-08 10:35:00,
2013-01-08 04:40:00,17.4,9.9,28.85,NW,326,0.0,0.0,72,0.00,,---,0.00,VWS V14.01,2013-01-08 10:40:00,
2013-01-08 04:45:00,17.2,9.8,28.85,NW,326,0.0,0.0,72,0.00,,---,0.00,VWS V14.01,2013-01-08 10:45:00,
2013-01-08 04:50:00,17.1,9.6,28.85,NW,326,0.0,0.0,72,0.00,,---,0.00,VWS V14.01,2013-01-08 10:50:00,
2013-01-08 05:00:00,16.3,8.9,28.85,NW,326,0.0,0.0,72,0.00,,---,0.00,VWS V14.01,2013-01-08 11:00:00,
2013-01-08 05:10:00,15.8,8.4,28.85,NW,326,0.0,0.0,72,0.00,,---,0.00,VWS V14.01,2013-01-08 11:10:00,
2013-01-08 05:15:00,15.3,7.6,28.85,NW,326,0.0,0.0,71,0.00,,---,0.00,VWS V14.01,2013-01-08 11:15:00,
2013-01-08 05:20:00,14.9,7.2,28.85,NW,326,0.0,0.0,71,0.00,,---,0.00,VWS V14.01,2013-01-08 11:20:00,
2013-01-08 05:25:00,14.5,6.6,28.85,NW,326,0.0,0.0,70,0.00,,---,0.00,VWS V14.01,2013-01-08 11:25:00,
2013-01-08 05:30:00,14.7,6.7,28.85,NW,326,0.0,0.0,70,0.00,,---,0.00,VWS V14.01,2013-01-08 11:30:00,
2013-01-08 05:40:00,14.9,7.2,28.85,NW,326,0.0,0.0,71,0.00,,---,0.00,VWS V14.01,2013-01-08 11:40:00,
2013-01-08 05:50:00,15.6,8.2,28.85,NW,326,0.0,0.0,72,0.00,,---,0.00,VWS V14.01,2013-01-08 11:50:00,
2013-01-08 06:00:00,15.8,8.7,28.85,NW,326,0.0,0.0,73,0.00,,---,0.00,VWS V14.01,2013-01-08 12:00:00,
2013-01-08 06:10:00,15.4,8.4,28.85,NW,326,0.0,0.0,73,0.00,,---,0.00,VWS V14.01,2013-01-08 12:10:00,
2013-01-08 06:15:00,15.4,8.6,28.85,NW,326,0.0,0.0,74,0.00,,---,0.00,VWS V14.01,2013-01-08 12:15:00,
2013-01-08 06:20:00,15.8,9.0,28.85,NW,326,0.0,0.0,74,0.00,,---,0.00,VWS V14.01,2013-01-08 12:20:00,
2013-01-08 06:25:00,16.0,9.2,28.85,NW,326,0.0,0.0,74,0.00,,---,0.00,VWS V14.01,2013-01-08 12:25:00,
2013-01-08 06:35:00,15.8,9.3,28.85,NW,326,0.0,0.0,75,0.00,,---,0.00,VWS V14.01,2013-01-08 12:35:00,
2013-01-08 06:45:00,15.4,8.9,28.85,NW,326,0.0,0.0,75,0.00,,---,0.00,VWS V14.01,2013-01-08 12:45:00,
2013-01-08 06:50:00,15.3,8.8,28.85,NW,326,0.0,0.0,75,0.00,,---,0.00,VWS V14.01,2013-01-08 12:50:00,
2013-01-08 06:55:00,15.4,9.2,28.85,NW,326,0.0,0.0,76,0.00,,---,0.00,VWS V14.01,2013-01-08 12:55:00,
2013-01-08 07:00:00,15.4,9.2,28.85,NW,326,0.0,0.0,76,0.00,,---,0.00,VWS V14.01,2013-01-08 13:00:00,
2013-01-08 07:05:00,15.1,8.9,28.85,NW,326,0.0,0.0,76,0.00,,---,0.00,VWS V14.01,2013-01-08 13:05:00,
2013-01-08 07:10:00,15.1,8.9,28.85,NW,326,0.0,0.0,76,0.00,,---,0.00,VWS V14.01,2013-01-08 13:10:00,
2013-01-08 07:20:00,15.8,9.9,28.85,NW,326,0.0,0.0,77,0.00,,---,0.00,VWS V14.01,2013-01-08 13:20:00,
2013-01-08 07:25:00,15.8,9.9,28.85,NW,326,0.0,0.0,77,0.00,,---,0.00,VWS V14.01,2013-01-08 13:25:00,
2013-01-08 07:35:00,15.6,9.7,28.85,NW,326,0.0,0.0,77,0.00,,---,0.00,VWS V14.01,2013-01-08 13:35:00,
2013-01-08 07:40:00,15.4,9.5,28.85,NW,326,0.0,0.0,77,0.00,,---,0.00,VWS V14.01,2013-01-08 13:40:00,
2013-01-08 07:50:00,15.8,10.2,28.85,NW,326,0.0,0.0,78,0.00,,---,0.00,VWS V14.01,2013-01-08 13:50:00,
2013-01-08 08:00:00,16.2,10.2,28.85,NW,326,0.0,0.0,77,0.00,,---,0.00,VWS V14.01,2013-01-08 14:00:00,
2013-01-08 08:10:00,16.7,11.1,28.85,NW,326,0.0,0.0,78,0.00,,---,0.00,VWS V14.01,2013-01-08 14:10:00,
2013-01-08 08:20:00,17.8,12.1,28.85,NW,326,0.0,0.0,78,0.00,,---,0.00,VWS V14.01,2013-01-08 14:20:00,
2013-01-08 08:25:00,18.3,12.9,28.85,NW,326,0.0,0.0,79,0.00,,---,0.00,VWS V14.01,2013-01-08 14:25:00,
2013-01-08 08:35:00,19.0,13.6,28.85,NW,326,0.0,0.0,79,0.00,,---,0.00,VWS V14.01,2013-01-08 14:35:00,
2013-01-08 08:40:00,19.6,14.4,28.85,NW,326,0.0,0.0,80,0.00,,---,0.00,VWS V14.01,2013-01-08 14:40:00,
2013-01-08 08:45:00,19.8,14.6,28.85,NW,326,0.0,0.0,80,0.00,,---,0.00,VWS V14.01,2013-01-08 14:45:00,
2013-01-08 08:55:00,20.1,15.2,28.85,NW,326,0.0,0.0,81,0.00,,---,0.00,VWS V14.01,2013-01-08 14:55:00,
2013-01-08 09:05:00,20.5,15.6,28.85,NW,326,0.0,0.0,81,0.00,,---,0.00,VWS V14.01,2013-01-08 15:05:00,
2013-01-08 09:10:00,20.8,16.2,28.85,NW,326,0.0,0.0,82,0.00,,---,0.00,VWS V14.01,2013-01-08 15:10:00,
2013-01-08 09:15:00,21.2,16.6,28.85,NNW,334,0.0,0.0,82,0.00,,---,0.00,VWS V14.01,2013-01-08 15:15:00,
2013-01-08 09:25:00,21.9,17.3,28.85,NNE,17,0.0,0.0,82,0.00,,---,0.00,VWS V14.01,2013-01-08 15:25:00,
2013-01-08 09:30:00,22.5,18.1,28.82,East,81,0.0,0.0,83,0.00,,---,0.00,VWS V14.01,2013-01-08 15:30:00,
2013-01-08 09:35:00,23.0,18.6,28.82,NE,39,0.0,0.0,83,0.00,,---,0.00,VWS V14.01,2013-01-08 15:35:00,
2013-01-08 09:45:00,24.1,20.0,28.82,SE,130,3.1,3.1,84,0.00,,---,0.00,VWS V14.01,2013-01-08 15:45:00,
2013-01-08 09:55:00,25.2,21.0,28.82,ENE,63,0.0,0.0,84,0.00,,---,0.00,VWS V14.01,2013-01-08 15:55:00,
2013-01-08 10:00:00,25.5,21.4,28.82,SE,126,0.0,0.0,84,0.00,,---,0.00,VWS V14.01,2013-01-08 16:00:00,
2013-01-08 10:05:00,25.9,21.7,28.82,East,87,0.0,0.0,84,0.00,,---,0.00,VWS V14.01,2013-01-08 16:05:00,
2013-01-08 10:15:00,26.1,21.9,28.82,East,79,0.0,0.0,84,0.00,,---,0.00,VWS V14.01,2013-01-08 16:15:00,
2013-01-08 10:20:00,26.1,21.9,28.82,East,79,0.0,0.0,84,0.00,,---,0.00,VWS V14.01,2013-01-08 16:20:00,
2013-01-08 10:30:00,26.6,22.4,28.82,East,79,0.0,0.0,84,0.00,,---,0.00,VWS V14.01,2013-01-08 16:30:00,
2013-01-08 10:40:00,27.1,22.7,28.82,East,79,0.0,0.0,83,0.00,,---,0.00,VWS V14.01,2013-01-08 16:40:00,
2013-01-08 10:45:00,27.7,23.2,28.79,East,79,0.0,0.0,83,0.00,,---,0.00,VWS V14.01,2013-01-08 16:45:00,
2013-01-08 10:55:00,28.9,24.4,28.79,East,79,0.0,0.0,83,0.00,,---,0.00,VWS V14.01,2013-01-08 16:55:00,
2013-01-08 11:00:00,29.5,25.0,28.79,East,79,0.0,0.0,83,0.00,,---,0.00,VWS V14.01,2013-01-08 17:00:00,
2013-01-08 11:05:00,30.0,25.5,28.79,NE,49,0.0,0.0,83,0.00,,---,0.00,VWS V14.01,2013-01-08 17:05:00,
2013-01-08 11:15:00,30.6,25.1,28.79,NE,50,0.0,0.0,80,0.00,,---,0.00,VWS V14.01,2013-01-08 17:15:00,
2013-01-08 11:20:00,30.7,25.0,28.79,NE,49,0.0,0.0,79,0.00,,---,0.00,VWS V14.01,2013-01-08 17:20:00,
2013-01-08 11:30:00,31.1,25.0,28.79,SE,138,2.2,2.2,78,0.00,,---,0.00,VWS V14.01,2013-01-08 17:30:00,
2013-01-08 11:40:00,31.8,25.4,28.79,SSE,151,3.6,3.6,77,0.00,,---,0.00,VWS V14.01,2013-01-08 17:40:00,
2013-01-08 11:50:00,32.2,25.5,28.79,ESE,119,3.1,3.1,76,0.00,,---,0.00,VWS V14.01,2013-01-08 17:50:00,
2013-01-08 11:55:00,32.2,25.2,28.79,SE,130,3.1,3.1,75,0.00,,---,0.00,VWS V14.01,2013-01-08 17:55:00,
2013-01-08 12:05:00,32.9,25.5,28.76,SE,144,3.1,3.1,74,0.00,,---,0.00,VWS V14.01,2013-01-08 18:05:00,
2013-01-08 12:15:00,33.4,24.4,28.76,SE,130,5.4,5.4,69,0.00,,---,0.00,VWS V14.01,2013-01-08 18:15:00,
2013-01-08 12:20:00,33.8,23.7,28.76,ESE,116,5.8,5.8,66,0.00,,---,0.00,VWS V14.01,2013-01-08 18:20:00,
2013-01-08 12:25:00,33.8,22.9,28.76,SE,139,4.0,4.0,64,0.00,,---,0.00,VWS V14.01,2013-01-08 18:25:00,
2013-01-08 12:35:00,34.5,23.2,28.76,South,182,3.1,3.1,63,0.00,,---,0.00,VWS V14.01,2013-01-08 18:35:00,
2013-01-08 12:40:00,34.9,22.4,28.76,SE,125,3.6,3.6,60,0.00,,---,0.00,VWS V14.01,2013-01-08 18:40:00,
2013-01-08 12:50:00,35.2,22.8,28.73,SE,140,5.4,5.4,60,0.00,,---,0.00,VWS V14.01,2013-01-08 18:50:00,
2013-01-08 13:00:00,35.4,22.5,28.73,ESE,117,8.3,8.3,59,0.00,,---,0.00,VWS V14.01,2013-01-08 19:00:00,
2013-01-08 13:05:00,35.2,22.4,28.73,ESE,105,5.8,5.8,59,0.00,,---,0.00,VWS V14.01,2013-01-08 19:05:00,
2013-01-08 13:15:00,35.2,22.0,28.70,ESE,114,3.6,3.6,58,0.00,,---,0.00,VWS V14.01,2013-01-08 19:15:00,
2013-01-08 13:25:00,35.4,22.5,28.70,ESE,122,7.6,7.6,59,0.00,,---,0.00,VWS V14.01,2013-01-08 19:25:00,
2013-01-08 13:30:00,35.6,22.3,28.70,ESE,110,8.1,8.1,58,0.00,,---,0.00,VWS V14.01,2013-01-08 19:30:00,
2013-01-08 13:35:00,35.6,22.3,28.70,ESE,120,10.1,10.1,58,0.00,,---,0.00,VWS V14.01,2013-01-08 19:35:00,
2013-01-08 13:45:00,35.6,21.9,28.70,SE,128,8.1,8.1,57,0.00,,---,0.00,VWS V14.01,2013-01-08 19:45:00,
2013-01-08 13:50:00,35.6,21.9,28.70,ESE,111,7.6,7.6,57,0.00,,---,0.00,VWS V14.01,2013-01-08 19:50:00,
2013-01-08 14:00:00,36.3,22.6,28.67,ESE,112,7.6,7.6,57,0.00,,---,0.00,VWS V14.01,2013-01-08 20:00:00,
2013-01-08 14:10:00,37.0,22.4,28.67,SSW,192,7.6,7.6,55,0.00,,---,0.00,VWS V14.01,2013-01-08 20:10:00,
2013-01-08 14:15:00,37.2,22.1,28.67,ESE,112,11.0,11.0,54,0.00,,---,0.00,VWS V14.01,2013-01-08 20:15:00,
2013-01-08 14:25:00,36.7,21.6,28.67,SSE,165,8.1,8.1,54,0.00,,---,0.00,VWS V14.01,2013-01-08 20:25:00,
2013-01-08 14:35:00,36.1,21.1,28.67,SE,131,8.1,8.1,54,0.00,,---,0.00,VWS V14.01,2013-01-08 20:35:00,
2013-01-08 14:45:00,35.6,21.5,28.64,East,98,8.1,8.1,56,0.00,,---,0.00,VWS V14.01,2013-01-08 20:45:00,
2013-01-08 14:55:00,35.2,21.5,28.64,SE,129,6.3,6.3,57,0.00,,---,0.00,VWS V14.01,2013-01-08 20:55:00,
2013-01-08 15:00:00,34.9,21.2,28.64,ESE,119,6.3,6.3,57,0.00,,---,0.00,VWS V14.01,2013-01-08 21:00:00,
2013-01-08 15:10:00,34.9,21.6,28.64,ESE,123,7.6,7.6,58,0.00,,---,0.00,VWS V14.01,2013-01-08 21:10:00,
2013-01-08 15:15:00,34.9,22.0,28.67,ESE,115,3.6,3.6,59,0.00,,---,0.00,VWS V14.01,2013-01-08 21:15:00,
2013-01-08 15:20:00,34.7,21.9,28.67,SSE,157,5.8,5.8,59,0.00,,---,0.00,VWS V14.01,2013-01-08 21:20:00,
2013-01-08 15:30:00,34.5,21.7,28.67,SSE,153,2.7,2.7,59,0.00,,---,0.00,VWS V14.01,2013-01-08 21:30:00,
2013-01-08 15:35:00,34.5,22.1,28.67,South,180,4.0,4.0,60,0.00,,---,0.00,VWS V14.01,2013-01-08 21:35:00,
2013-01-08 15:45:00,34.3,21.9,28.67,SE,135,3.6,3.6,60,0.00,,---,0.00,VWS V14.01,2013-01-08 21:45:00,
2013-01-08 15:50:00,34.2,22.1,28.67,SE,126,6.3,6.3,61,0.00,,---,0.00,VWS V14.01,2013-01-08 21:50:00,
2013-01-08 15:55:00,34.0,22.4,28.67,SE,136,5.4,5.4,62,0.00,,---,0.00,VWS V14.01,2013-01-08 21:55:00,
2013-01-08 16:05:00,33.8,22.5,28.67,South,184,6.3,6.3,63,0.00,,---,0.00,VWS V14.01,2013-01-08 22:05:00,
2013-01-08 16:10:00,33.8,22.5,28.67,ESE,120,5.4,5.4,63,0.00,,---,0.00,VWS V14.01,2013-01-08 22:10:00,
2013-01-08 16:20:00,33.6,22.8,28.67,South,171,4.0,4.0,64,0.00,,---,0.00,VWS V14.01,2013-01-08 22:20:00,
2013-01-08 16:30:00,33.6,23.1,28.67,WSW,240,5.4,5.4,65,0.00,,---,0.00,VWS V14.01,2013-01-08 22:30:00,
2013-01-08 16:35:00,33.6,23.5,28.67,SW,224,0.0,0.0,66,0.00,,---,0.00,VWS V14.01,2013-01-08 22:35:00,
2013-01-08 16:45:00,33.6,23.9,28.67,SSW,194,3.1,3.1,67,0.00,,---,0.00,VWS V14.01,2013-01-08 22:45:00,
2013-01-08 16:55:00,33.4,24.0,28.67,SSW,195,3.1,3.1,68,0.00,,---,0.00,VWS V14.01,2013-01-08 22:55:00,
2013-01-08 17:00:00,33.4,24.0,28.67,SSW,203,2.7,2.7,68,0.00,,---,0.00,VWS V14.01,2013-01-08 23:00:00,
2013-01-08 17:05:00,33.4,24.0,28.67,SSE,163,5.4,5.4,68,0.00,,---,0.00,VWS V14.01,2013-01-08 23:05:00,
2013-01-08 17:15:00,33.3,24.2,28.67,SW,230,4.0,4.0,69,0.00,,---,0.00,VWS V14.01,2013-01-08 23:15:00,
2013-01-08 17:20:00,33.3,24.5,28.67,SW,223,4.0,4.0,70,0.00,,---,0.00,VWS V14.01,2013-01-08 23:20:00,
2013-01-08 17:30:00,33.3,24.5,28.67,SSE,150,2.7,2.7,70,0.00,,---,0.00,VWS V14.01,2013-01-08 23:30:00,
2013-01-08 17:40:00,33.3,24.9,28.67,SSE,162,4.0,4.0,71,0.00,,---,0.00,VWS V14.01,2013-01-08 23:40:00,
2013-01-08 17:50:00,33.3,25.2,28.67,SSE,162,4.0,4.0,72,0.00,,---,0.00,VWS V14.01,2013-01-08 23:50:00,
2013-01-08 17:55:00,33.3,25.2,28.67,South,181,6.3,6.3,72,0.00,,---,0.00,VWS V14.01,2013-01-08 23:55:00,
2013-01-08 18:05:00,33.3,25.6,28.67,South,185,0.0,0.0,73,0.00,,---,0.00,VWS V14.01,2013-01-09 00:05:00,
2013-01-08 18:10:00,33.3,25.9,28.67,SSE,161,3.1,3.1,74,0.00,,---,0.00,VWS V14.01,2013-01-09 00:10:00,
2013-01-08 18:15:00,33.3,25.9,28.67,SSW,211,5.4,5.4,74,0.00,,---,0.00,VWS V14.01,2013-01-09 00:15:00,
2013-01-08 18:25:00,33.4,26.4,28.67,WSW,243,0.0,0.0,75,0.00,,---,0.00,VWS V14.01,2013-01-09 00:25:00,
2013-01-08 18:30:00,33.4,26.4,28.67,WNW,291,9.6,9.6,75,0.00,,---,0.00,VWS V14.01,2013-01-09 00:30:00,
2013-01-08 18:40:00,33.4,26.4,28.67,WNW,289,8.7,8.7,75,0.00,,---,0.00,VWS V14.01,2013-01-09 00:40:00,
2013-01-08 18:50:00,33.4,26.4,28.67,WNW,293,5.4,5.4,75,0.00,,---,0.00,VWS V14.01,2013-01-09 00:50:00,
2013-01-08 18:55:00,33.4,26.4,28.67,NW,305,5.4,5.4,75,0.00,,---,0.00,VWS V14.01,2013-01-09 00:55:00,
2013-01-08 19:05:00,33.1,26.0,28.67,SW,230,3.6,3.6,75,0.00,,---,0.00,VWS V14.01,2013-01-09 01:05:00,
2013-01-08 19:10:00,33.1,26.0,28.67,West,274,2.7,2.7,75,0.00,,---,0.00,VWS V14.01,2013-01-09 01:10:00,
2013-01-08 19:15:00,32.9,25.9,28.67,NW,311,4.0,4.0,75,0.00,,---,0.00,VWS V14.01,2013-01-09 01:15:00,
2013-01-08 19:25:00,32.5,25.8,28.67,WNW,288,3.6,3.6,76,0.00,,---,0.00,VWS V14.01,2013-01-09 01:25:00,
2013-01-08 19:35:00,32.2,25.5,28.67,WSW,252,2.7,2.7,76,0.00,,---,0.00,VWS V14.01,2013-01-09 01:35:00,
2013-01-08 19:40:00,32.0,25.3,28.67,West,266,2.7,2.7,76,0.00,,---,0.00,VWS V14.01,2013-01-09 01:40:00,
2013-01-08 19:50:00,31.5,24.8,28.70,WSW,254,0.0,0.0,76,0.00,,---,0.00,VWS V14.01,2013-01-09 01:50:00,
2013-01-08 20:00:00,31.1,24.4,28.70,West,275,0.0,0.0,76,0.00,,---,0.00,VWS V14.01,2013-01-09 02:00:00,
2013-01-08 20:10:00,30.7,24.1,28.70,WSW,247,0.0,0.0,76,0.00,,---,0.00,VWS V14.01,2013-01-09 02:10:00,
2013-01-08 20:15:00,30.7,24.1,28.70,WSW,241,4.0,4.0,76,0.00,,---,0.00,VWS V14.01,2013-01-09 02:15:00,
2013-01-08 20:25:00,30.4,24.0,28.70,WNW,302,5.4,5.4,77,0.00,,---,0.00,VWS V14.01,2013-01-09 02:25:00,
2013-01-08 20:30:00,30.4,24.0,28.70,West,275,3.1,3.1,77,0.00,,---,0.00,VWS V14.01,2013-01-09 02:30:00,
2013-01-08 20:35:00,30.4,24.0,28.70,WSW,257,2.7,2.7,77,0.00,,---,0.00,VWS V14.01,2013-01-09 02:35:00,
2013-01-08 20:45:00,30.4,24.0,28.70,WSW,244,8.1,8.1,77,0.00,,---,0.00,VWS V14.01,2013-01-09 02:45:00,
2013-01-08 20:50:00,30.4,24.0,28.70,WSW,252,3.1,3.1,77,0.00,,---,0.00,VWS V14.01,2013-01-09 02:50:00,
2013-01-08 20:55:00,30.4,24.0,28.70,WSW,254,5.8,5.8,77,0.00,,---,0.00,VWS V14.01,2013-01-09 02:55:00,
2013-01-08 21:00:00,30.4,24.0,28.70,West,275,4.9,4.9,77,0.00,,---,0.00,VWS V14.01,2013-01-09 03:00:00,
2013-01-08 21:10:00,30.4,24.0,28.70,SW,232,7.2,7.2,77,0.00,,---,0.00,VWS V14.01,2013-01-09 03:10:00,
2013-01-08 21:20:00,30.6,23.9,28.73,WNW,286,3.6,3.6,76,0.00,,---,0.00,VWS V14.01,2013-01-09 03:20:00,
2013-01-08 21:25:00,30.6,23.9,28.73,West,270,5.8,5.8,76,0.00,,---,0.00,VWS V14.01,2013-01-09 03:25:00,
2013-01-08 21:35:00,30.7,24.1,28.73,West,279,3.6,3.6,76,0.00,,---,0.00,VWS V14.01,2013-01-09 03:35:00,
2013-01-08 21:45:00,30.7,24.4,28.73,WNW,283,3.1,3.1,77,0.00,,---,0.00,VWS V14.01,2013-01-09 03:45:00,
2013-01-08 21:55:00,31.1,24.8,28.73,WNW,291,0.0,0.0,77,0.00,,---,0.00,VWS V14.01,2013-01-09 03:55:00,
2013-01-08 22:00:00,31.1,24.8,28.73,West,274,4.0,4.0,77,0.00,,---,0.00,VWS V14.01,2013-01-09 04:00:00,
2013-01-08 22:10:00,32.0,25.9,28.73,WNW,283,3.6,3.6,78,0.00,,---,0.00,VWS V14.01,2013-01-09 04:10:00,
2013-01-08 22:15:00,32.2,26.1,28.73,West,276,3.1,3.1,78,0.00,,---,0.00,VWS V14.01,2013-01-09 04:15:00,
2013-01-08 22:20:00,32.2,25.8,28.73,WNW,301,4.0,4.0,77,0.00,,---,0.00,VWS V14.01,2013-01-09 04:20:00,
2013-01-08 22:25:00,32.2,25.8,28.73,West,268,3.1,3.1,77,0.00,,---,0.00,VWS V14.01,2013-01-09 04:25:00,
2013-01-08 22:35:00,32.2,25.5,28.76,West,265,4.0,4.0,76,0.00,,---,0.00,VWS V14.01,2013-01-09 04:35:00,
2013-01-08 22:45:00,31.8,25.1,28.76,SW,232,3.6,3.6,76,0.00,,---,0.00,VWS V14.01,2013-01-09 04:45:00,
2013-01-08 22:55:00,31.6,25.3,28.76,West,279,3.6,3.6,77,0.00,,---,0.00,VWS V14.01,2013-01-09 04:55:00,
2013-01-08 23:05:00,31.5,25.1,28.76,SW,234,4.0,4.0,77,0.00,,---,0.00,VWS V14.01,2013-01-09 05:05:00,
2013-01-08 23:10:00,31.3,24.6,28.76,WNW,298,2.7,2.7,76,0.00,,---,0.00,VWS V14.01,2013-01-09 05:10:00,
2013-01-08 23:15:00,31.1,24.4,28.76,WNW,299,3.6,3.6,76,0.00,,---,0.00,VWS V14.01,2013-01-09 05:15:00,
2013-01-08 23:20:00,31.1,24.4,28.76,West,276,4.0,4.0,76,0.00,,---,0.00,VWS V14.01,2013-01-09 05:20:00,
2013-01-08 23:30:00,30.6,23.9,28.79,West,262,3.1,3.1,76,0.00,,---,0.00,VWS V14.01,2013-01-09 05:30:00,
2013-01-08 23:40:00,30.2,23.9,28.79,West,277,3.6,3.6,77,0.00,,---,0.00,VWS V14.01,2013-01-09 05:40:00,
2013-01-08 23:50:00,29.8,23.5,28.79,WSW,244,3.6,3.6,77,0.00,,---,0.00,VWS V14.01,2013-01-09 05:50:00,
2013-01-08 23:55:00,29.7,23.4,28.79,SW,233,4.9,4.9,77,0.00,,---,0.00,VWS V14.01,2013-01-09 05:55:00,